sensor_id;sensor_type;location;lat;lon;timestamp;P1;durP1;ratioP1;P2;durP2;ratioP2
36855;SDS011;22788;51.434;6.786;2022-07-21T00:00:39;8.27;;;7.18;;
36855;SDS011;22788;51.434;6.786;2022-07-21T00:03:05;7.57;;;6.80;;
36855;SDS011;22788;51.434;6.786;2022-07-21T00:05:32;8.68;;;6.65;;
36855;SDS011;22788;51.434;6.786;2022-07-21T00:07:58;7.85;;;6.88;;
36855;SDS011;22788;51.434;6.786;2022-07-21T00:10:24;7.45;;;6.65;;
36855;SDS011;22788;51.434;6.786;2022-07-21T00:12:51;7.35;;;6.47;;
36855;SDS011;22788;51.434;6.786;2022-07-21T00:15:19;7.78;;;6.57;;
36855;SDS011;22788;51.434;6.786;2022-07-21T00:17:47;7.68;;;6.63;;
36855;SDS011;22788;51.434;6.786;2022-07-21T00:20:14;8.55;;;6.57;;
36855;SDS011;22788;51.434;6.786;2022-07-21T00:22:41;7.00;;;6.30;;
36855;SDS011;22788;51.434;6.786;2022-07-21T00:25:08;8.02;;;6.25;;
36855;SDS011;22788;51.434;6.786;2022-07-21T00:27:35;7.00;;;6.00;;
36855;SDS011;22788;51.434;6.786;2022-07-21T00:30:02;7.68;;;6.05;;
36855;SDS011;22788;51.434;6.786;2022-07-21T00:32:30;7.40;;;6.18;;
36855;SDS011;22788;51.434;6.786;2022-07-21T00:34:57;6.63;;;5.90;;
36855;SDS011;22788;51.434;6.786;2022-07-21T00:37:23;8.65;;;5.82;;
36855;SDS011;22788;51.434;6.786;2022-07-21T00:39:49;6.65;;;5.95;;
36855;SDS011;22788;51.434;6.786;2022-07-21T00:42:21;6.40;;;5.68;;
36855;SDS011;22788;51.434;6.786;2022-07-21T00:44:48;7.50;;;5.88;;
36855;SDS011;22788;51.434;6.786;2022-07-21T00:47:15;8.02;;;6.40;;
36855;SDS011;22788;51.434;6.786;2022-07-21T00:49:45;7.57;;;6.10;;
36855;SDS011;22788;51.434;6.786;2022-07-21T00:52:11;6.75;;;6.15;;
36855;SDS011;22788;51.434;6.786;2022-07-21T00:54:37;8.20;;;6.20;;
36855;SDS011;22788;51.434;6.786;2022-07-21T00:57:03;6.13;;;5.28;;
36855;SDS011;22788;51.434;6.786;2022-07-21T00:59:31;9.27;;;6.60;;
36855;SDS011;22788;51.434;6.786;2022-07-21T01:01:57;7.43;;;6.10;;
36855;SDS011;22788;51.434;6.786;2022-07-21T01:04:23;6.55;;;5.75;;
36855;SDS011;22788;51.434;6.786;2022-07-21T01:06:51;6.40;;;5.70;;
36855;SDS011;22788;51.434;6.786;2022-07-21T01:09:18;7.75;;;5.85;;
36855;SDS011;22788;51.434;6.786;2022-07-21T01:11:44;6.50;;;5.60;;
36855;SDS011;22788;51.434;6.786;2022-07-21T01:14:11;6.70;;;5.82;;
36855;SDS011;22788;51.434;6.786;2022-07-21T01:16:37;8.23;;;6.03;;
36855;SDS011;22788;51.434;6.786;2022-07-21T01:19:04;6.40;;;5.47;;
36855;SDS011;22788;51.434;6.786;2022-07-21T01:21:33;6.82;;;5.18;;
36855;SDS011;22788;51.434;6.786;2022-07-21T01:24:01;9.15;;;6.28;;
36855;SDS011;22788;51.434;6.786;2022-07-21T01:26:28;6.85;;;5.68;;
36855;SDS011;22788;51.434;6.786;2022-07-21T01:28:55;5.80;;;5.13;;
36855;SDS011;22788;51.434;6.786;2022-07-21T01:31:22;6.90;;;6.18;;
36855;SDS011;22788;51.434;6.786;2022-07-21T01:33:49;7.35;;;5.45;;
36855;SDS011;22788;51.434;6.786;2022-07-21T01:36:16;5.90;;;5.32;;
36855;SDS011;22788;51.434;6.786;2022-07-21T01:38:43;7.95;;;5.97;;
36855;SDS011;22788;51.434;6.786;2022-07-21T01:41:09;6.82;;;5.68;;
36855;SDS011;22788;51.434;6.786;2022-07-21T01:43:35;7.40;;;5.28;;
36855;SDS011;22788;51.434;6.786;2022-07-21T01:46:01;7.50;;;5.82;;
36855;SDS011;22788;51.434;6.786;2022-07-21T01:48:28;7.85;;;5.82;;
36855;SDS011;22788;51.434;6.786;2022-07-21T01:50:54;6.35;;;5.40;;
36855;SDS011;22788;51.434;6.786;2022-07-21T01:53:20;8.68;;;5.78;;
36855;SDS011;22788;51.434;6.786;2022-07-21T01:55:47;7.00;;;5.63;;
36855;SDS011;22788;51.434;6.786;2022-07-21T01:58:13;6.90;;;5.57;;
36855;SDS011;22788;51.434;6.786;2022-07-21T02:00:39;6.00;;;5.38;;
36855;SDS011;22788;51.434;6.786;2022-07-21T02:03:05;7.82;;;5.80;;
36855;SDS011;22788;51.434;6.786;2022-07-21T02:05:31;9.05;;;5.50;;
36855;SDS011;22788;51.434;6.786;2022-07-21T02:07:57;7.07;;;5.75;;
36855;SDS011;22788;51.434;6.786;2022-07-21T02:10:23;7.45;;;5.95;;
36855;SDS011;22788;51.434;6.786;2022-07-21T02:12:51;6.90;;;6.10;;
36855;SDS011;22788;51.434;6.786;2022-07-21T02:15:17;7.13;;;6.00;;
36855;SDS011;22788;51.434;6.786;2022-07-21T02:17:43;6.88;;;5.80;;
36855;SDS011;22788;51.434;6.786;2022-07-21T02:20:10;7.18;;;5.50;;
36855;SDS011;22788;51.434;6.786;2022-07-21T02:22:36;9.57;;;5.47;;
36855;SDS011;22788;51.434;6.786;2022-07-21T02:25:02;7.20;;;5.82;;
36855;SDS011;22788;51.434;6.786;2022-07-21T02:27:29;6.25;;;5.65;;
36855;SDS011;22788;51.434;6.786;2022-07-21T02:29:56;9.50;;;5.70;;
36855;SDS011;22788;51.434;6.786;2022-07-21T02:32:22;7.70;;;5.60;;
36855;SDS011;22788;51.434;6.786;2022-07-21T02:34:48;8.73;;;5.93;;
36855;SDS011;22788;51.434;6.786;2022-07-21T02:37:14;6.97;;;5.40;;
36855;SDS011;22788;51.434;6.786;2022-07-21T02:39:40;7.30;;;5.93;;
36855;SDS011;22788;51.434;6.786;2022-07-21T02:42:06;8.63;;;5.22;;
36855;SDS011;22788;51.434;6.786;2022-07-21T02:44:32;6.65;;;5.10;;
36855;SDS011;22788;51.434;6.786;2022-07-21T02:47:00;7.57;;;5.55;;
36855;SDS011;22788;51.434;6.786;2022-07-21T02:49:26;8.07;;;5.80;;
36855;SDS011;22788;51.434;6.786;2022-07-21T02:51:52;6.90;;;5.97;;
36855;SDS011;22788;51.434;6.786;2022-07-21T02:54:18;8.30;;;6.40;;
36855;SDS011;22788;51.434;6.786;2022-07-21T02:56:44;7.28;;;5.55;;
36855;SDS011;22788;51.434;6.786;2022-07-21T02:59:10;6.55;;;5.38;;
36855;SDS011;22788;51.434;6.786;2022-07-21T03:01:36;7.15;;;5.82;;
36855;SDS011;22788;51.434;6.786;2022-07-21T03:04:04;6.88;;;5.90;;
36855;SDS011;22788;51.434;6.786;2022-07-21T03:06:30;6.38;;;5.60;;
36855;SDS011;22788;51.434;6.786;2022-07-21T03:08:56;7.28;;;5.78;;
36855;SDS011;22788;51.434;6.786;2022-07-21T03:11:23;8.88;;;5.85;;
36855;SDS011;22788;51.434;6.786;2022-07-21T03:13:49;7.00;;;5.88;;
36855;SDS011;22788;51.434;6.786;2022-07-21T03:16:15;7.40;;;5.80;;
36855;SDS011;22788;51.434;6.786;2022-07-21T03:18:41;6.68;;;5.70;;
36855;SDS011;22788;51.434;6.786;2022-07-21T03:21:09;10.52;;;6.47;;
36855;SDS011;22788;51.434;6.786;2022-07-21T03:23:35;8.35;;;6.22;;
36855;SDS011;22788;51.434;6.786;2022-07-21T03:26:01;6.35;;;5.63;;
36855;SDS011;22788;51.434;6.786;2022-07-21T03:28:27;7.13;;;5.93;;
36855;SDS011;22788;51.434;6.786;2022-07-21T03:30:53;8.25;;;5.63;;
36855;SDS011;22788;51.434;6.786;2022-07-21T03:33:19;6.00;;;5.40;;
36855;SDS011;22788;51.434;6.786;2022-07-21T03:35:45;6.25;;;5.65;;
36855;SDS011;22788;51.434;6.786;2022-07-21T03:38:13;6.45;;;5.25;;
36855;SDS011;22788;51.434;6.786;2022-07-21T03:40:39;7.70;;;5.97;;
36855;SDS011;22788;51.434;6.786;2022-07-21T03:43:05;8.50;;;5.68;;
36855;SDS011;22788;51.434;6.786;2022-07-21T03:45:33;8.65;;;5.68;;
36855;SDS011;22788;51.434;6.786;2022-07-21T03:48:00;5.82;;;5.18;;
36855;SDS011;22788;51.434;6.786;2022-07-21T03:50:28;6.75;;;5.40;;
36855;SDS011;22788;51.434;6.786;2022-07-21T03:52:55;8.48;;;5.88;;
36855;SDS011;22788;51.434;6.786;2022-07-21T03:55:23;8.13;;;5.65;;
36855;SDS011;22788;51.434;6.786;2022-07-21T03:57:50;6.85;;;5.40;;
36855;SDS011;22788;51.434;6.786;2022-07-21T04:00:20;7.50;;;5.80;;
36855;SDS011;22788;51.434;6.786;2022-07-21T04:02:47;6.35;;;5.30;;
36855;SDS011;22788;51.434;6.786;2022-07-21T04:05:15;6.78;;;4.70;;
36855;SDS011;22788;51.434;6.786;2022-07-21T04:07:42;9.35;;;5.32;;
36855;SDS011;22788;51.434;6.786;2022-07-21T04:10:09;6.15;;;5.10;;
36855;SDS011;22788;51.434;6.786;2022-07-21T04:12:38;6.70;;;5.70;;
36855;SDS011;22788;51.434;6.786;2022-07-21T04:15:05;7.40;;;5.18;;
36855;SDS011;22788;51.434;6.786;2022-07-21T04:17:31;6.82;;;5.22;;
36855;SDS011;22788;51.434;6.786;2022-07-21T04:19:58;7.32;;;5.38;;
36855;SDS011;22788;51.434;6.786;2022-07-21T04:22:24;6.50;;;5.20;;
36855;SDS011;22788;51.434;6.786;2022-07-21T04:24:50;7.63;;;5.25;;
36855;SDS011;22788;51.434;6.786;2022-07-21T04:27:16;5.93;;;5.03;;
36855;SDS011;22788;51.434;6.786;2022-07-21T04:29:44;6.32;;;5.10;;
36855;SDS011;22788;51.434;6.786;2022-07-21T04:32:10;6.85;;;4.90;;
36855;SDS011;22788;51.434;6.786;2022-07-21T04:34:36;6.03;;;5.10;;
36855;SDS011;22788;51.434;6.786;2022-07-21T04:37:02;5.30;;;4.80;;
36855;SDS011;22788;51.434;6.786;2022-07-21T04:39:28;5.85;;;5.00;;
36855;SDS011;22788;51.434;6.786;2022-07-21T04:41:54;7.97;;;5.30;;
36855;SDS011;22788;51.434;6.786;2022-07-21T04:44:21;6.50;;;5.45;;
36855;SDS011;22788;51.434;6.786;2022-07-21T04:46:48;6.28;;;5.13;;
36855;SDS011;22788;51.434;6.786;2022-07-21T04:49:14;7.43;;;5.80;;
36855;SDS011;22788;51.434;6.786;2022-07-21T04:51:40;6.05;;;5.45;;
36855;SDS011;22788;51.434;6.786;2022-07-21T04:54:06;7.65;;;4.78;;
36855;SDS011;22788;51.434;6.786;2022-07-21T04:56:32;5.80;;;5.20;;
36855;SDS011;22788;51.434;6.786;2022-07-21T04:58:59;5.75;;;5.15;;
36855;SDS011;22788;51.434;6.786;2022-07-21T05:01:25;6.55;;;5.30;;
36855;SDS011;22788;51.434;6.786;2022-07-21T05:03:52;8.07;;;4.95;;
36855;SDS011;22788;51.434;6.786;2022-07-21T05:06:18;6.25;;;5.28;;
36855;SDS011;22788;51.434;6.786;2022-07-21T05:08:44;5.28;;;4.78;;
36855;SDS011;22788;51.434;6.786;2022-07-21T05:11:11;6.47;;;5.47;;
36855;SDS011;22788;51.434;6.786;2022-07-21T05:13:37;9.32;;;5.85;;
36855;SDS011;22788;51.434;6.786;2022-07-21T05:16:03;6.43;;;5.03;;
36855;SDS011;22788;51.434;6.786;2022-07-21T05:18:30;5.93;;;5.03;;
36855;SDS011;22788;51.434;6.786;2022-07-21T05:20:58;6.03;;;5.30;;
36855;SDS011;22788;51.434;6.786;2022-07-21T05:23:24;6.20;;;5.10;;
36855;SDS011;22788;51.434;6.786;2022-07-21T05:25:50;7.60;;;5.38;;
36855;SDS011;22788;51.434;6.786;2022-07-21T05:28:16;6.78;;;5.50;;
36855;SDS011;22788;51.434;6.786;2022-07-21T05:30:42;6.20;;;5.15;;
36855;SDS011;22788;51.434;6.786;2022-07-21T05:33:08;6.03;;;5.03;;
36855;SDS011;22788;51.434;6.786;2022-07-21T05:35:35;8.07;;;5.80;;
36855;SDS011;22788;51.434;6.786;2022-07-21T05:38:02;5.75;;;5.15;;
36855;SDS011;22788;51.434;6.786;2022-07-21T05:40:28;5.65;;;5.10;;
36855;SDS011;22788;51.434;6.786;2022-07-21T05:42:54;5.90;;;4.90;;
36855;SDS011;22788;51.434;6.786;2022-07-21T05:45:20;6.45;;;5.35;;
36855;SDS011;22788;51.434;6.786;2022-07-21T05:47:47;5.97;;;5.22;;
36855;SDS011;22788;51.434;6.786;2022-07-21T05:50:13;7.22;;;5.60;;
36855;SDS011;22788;51.434;6.786;2022-07-21T05:52:39;7.60;;;5.50;;
36855;SDS011;22788;51.434;6.786;2022-07-21T05:55:08;5.95;;;5.38;;
36855;SDS011;22788;51.434;6.786;2022-07-21T05:57:34;7.10;;;5.43;;
36855;SDS011;22788;51.434;6.786;2022-07-21T06:00:01;6.55;;;5.63;;
36855;SDS011;22788;51.434;6.786;2022-07-21T06:02:28;6.57;;;5.20;;
36855;SDS011;22788;51.434;6.786;2022-07-21T06:04:54;7.30;;;5.45;;
36855;SDS011;22788;51.434;6.786;2022-07-21T06:07:20;6.65;;;5.25;;
36855;SDS011;22788;51.434;6.786;2022-07-21T06:09:46;6.85;;;5.47;;
36855;SDS011;22788;51.434;6.786;2022-07-21T06:12:14;7.20;;;6.18;;
36855;SDS011;22788;51.434;6.786;2022-07-21T06:14:40;8.27;;;5.63;;
36855;SDS011;22788;51.434;6.786;2022-07-21T06:17:06;6.85;;;6.13;;
36855;SDS011;22788;51.434;6.786;2022-07-21T06:19:32;7.63;;;5.50;;
36855;SDS011;22788;51.434;6.786;2022-07-21T06:21:58;6.88;;;6.15;;
36855;SDS011;22788;51.434;6.786;2022-07-21T06:24:24;7.55;;;5.65;;
36855;SDS011;22788;51.434;6.786;2022-07-21T06:26:50;7.40;;;5.88;;
36855;SDS011;22788;51.434;6.786;2022-07-21T06:29:18;12.50;;;5.63;;
36855;SDS011;22788;51.434;6.786;2022-07-21T06:31:44;6.72;;;5.95;;
36855;SDS011;22788;51.434;6.786;2022-07-21T06:34:10;8.05;;;6.20;;
36855;SDS011;22788;51.434;6.786;2022-07-21T06:36:36;7.57;;;5.90;;
36855;SDS011;22788;51.434;6.786;2022-07-21T06:39:02;7.10;;;5.22;;
36855;SDS011;22788;51.434;6.786;2022-07-21T06:41:28;7.70;;;5.43;;
36855;SDS011;22788;51.434;6.786;2022-07-21T06:43:54;8.32;;;5.95;;
36855;SDS011;22788;51.434;6.786;2022-07-21T06:46:22;6.75;;;5.88;;
36855;SDS011;22788;51.434;6.786;2022-07-21T06:48:48;7.03;;;5.78;;
36855;SDS011;22788;51.434;6.786;2022-07-21T06:51:14;9.77;;;5.95;;
36855;SDS011;22788;51.434;6.786;2022-07-21T06:53:40;7.75;;;5.80;;
36855;SDS011;22788;51.434;6.786;2022-07-21T06:56:06;6.30;;;5.28;;
36855;SDS011;22788;51.434;6.786;2022-07-21T06:58:32;8.43;;;5.85;;
36855;SDS011;22788;51.434;6.786;2022-07-21T07:00:58;6.43;;;5.57;;
36855;SDS011;22788;51.434;6.786;2022-07-21T07:03:26;7.65;;;5.82;;
36855;SDS011;22788;51.434;6.786;2022-07-21T07:05:52;6.40;;;5.53;;
36855;SDS011;22788;51.434;6.786;2022-07-21T07:08:18;7.68;;;5.07;;
36855;SDS011;22788;51.434;6.786;2022-07-21T07:10:44;7.18;;;5.68;;
36855;SDS011;22788;51.434;6.786;2022-07-21T07:13:10;6.18;;;5.15;;
36855;SDS011;22788;51.434;6.786;2022-07-21T07:15:37;6.95;;;5.50;;
36855;SDS011;22788;51.434;6.786;2022-07-21T07:18:03;8.57;;;5.43;;
36855;SDS011;22788;51.434;6.786;2022-07-21T07:20:31;6.43;;;5.80;;
36855;SDS011;22788;51.434;6.786;2022-07-21T07:22:57;6.22;;;5.35;;
36855;SDS011;22788;51.434;6.786;2022-07-21T07:25:23;6.05;;;5.40;;
36855;SDS011;22788;51.434;6.786;2022-07-21T07:27:49;8.80;;;5.50;;
36855;SDS011;22788;51.434;6.786;2022-07-21T07:30:16;8.38;;;6.00;;
36855;SDS011;22788;51.434;6.786;2022-07-21T07:32:43;8.98;;;5.07;;
36855;SDS011;22788;51.434;6.786;2022-07-21T07:35:10;9.15;;;6.15;;
36855;SDS011;22788;51.434;6.786;2022-07-21T07:37:38;6.57;;;5.57;;
36855;SDS011;22788;51.434;6.786;2022-07-21T07:40:07;7.72;;;5.35;;
36855;SDS011;22788;51.434;6.786;2022-07-21T07:42:35;7.10;;;5.95;;
36855;SDS011;22788;51.434;6.786;2022-07-21T07:45:02;7.32;;;5.47;;
36855;SDS011;22788;51.434;6.786;2022-07-21T07:47:32;8.05;;;5.68;;
36855;SDS011;22788;51.434;6.786;2022-07-21T07:49:58;6.57;;;5.88;;
36855;SDS011;22788;51.434;6.786;2022-07-21T07:52:25;5.88;;;5.28;;
36855;SDS011;22788;51.434;6.786;2022-07-21T07:54:53;6.18;;;5.40;;
36855;SDS011;22788;51.434;6.786;2022-07-21T07:57:19;5.90;;;5.28;;
36855;SDS011;22788;51.434;6.786;2022-07-21T07:59:45;6.90;;;5.57;;
36855;SDS011;22788;51.434;6.786;2022-07-21T08:02:11;5.90;;;5.10;;
36855;SDS011;22788;51.434;6.786;2022-07-21T08:04:37;6.43;;;5.10;;
36855;SDS011;22788;51.434;6.786;2022-07-21T08:07:03;5.88;;;5.18;;
36855;SDS011;22788;51.434;6.786;2022-07-21T08:09:29;6.82;;;5.30;;
36855;SDS011;22788;51.434;6.786;2022-07-21T08:11:59;6.45;;;5.10;;
36855;SDS011;22788;51.434;6.786;2022-07-21T08:14:26;6.68;;;5.07;;
36855;SDS011;22788;51.434;6.786;2022-07-21T08:16:52;7.97;;;5.35;;
36855;SDS011;22788;51.434;6.786;2022-07-21T08:19:18;7.18;;;5.07;;
36855;SDS011;22788;51.434;6.786;2022-07-21T08:21:44;6.90;;;4.88;;
36855;SDS011;22788;51.434;6.786;2022-07-21T08:24:10;7.20;;;5.35;;
36855;SDS011;22788;51.434;6.786;2022-07-21T08:26:36;5.50;;;4.72;;
36855;SDS011;22788;51.434;6.786;2022-07-21T08:29:03;5.05;;;4.55;;
36855;SDS011;22788;51.434;6.786;2022-07-21T08:31:29;7.85;;;5.25;;
36855;SDS011;22788;51.434;6.786;2022-07-21T08:33:55;5.47;;;4.78;;
36855;SDS011;22788;51.434;6.786;2022-07-21T08:36:21;6.78;;;4.93;;
36855;SDS011;22788;51.434;6.786;2022-07-21T08:38:48;7.95;;;4.88;;
36855;SDS011;22788;51.434;6.786;2022-07-21T08:41:14;5.80;;;5.18;;
36855;SDS011;22788;51.434;6.786;2022-07-21T08:43:40;5.65;;;5.03;;
36855;SDS011;22788;51.434;6.786;2022-07-21T08:46:08;10.93;;;5.25;;
36855;SDS011;22788;51.434;6.786;2022-07-21T08:48:35;5.97;;;5.00;;
36855;SDS011;22788;51.434;6.786;2022-07-21T08:51:02;5.72;;;4.78;;
36855;SDS011;22788;51.434;6.786;2022-07-21T08:53:28;6.88;;;4.50;;
36855;SDS011;22788;51.434;6.786;2022-07-21T08:55:54;5.63;;;5.00;;
36855;SDS011;22788;51.434;6.786;2022-07-21T08:58:21;5.05;;;4.57;;
36855;SDS011;22788;51.434;6.786;2022-07-21T09:00:47;6.03;;;4.85;;
36855;SDS011;22788;51.434;6.786;2022-07-21T09:03:16;5.40;;;4.85;;
36855;SDS011;22788;51.434;6.786;2022-07-21T09:05:58;5.90;;;4.80;;
36855;SDS011;22788;51.434;6.786;2022-07-21T09:08:28;6.85;;;5.38;;
36855;SDS011;22788;51.434;6.786;2022-07-21T09:11:06;6.10;;;4.82;;
36855;SDS011;22788;51.434;6.786;2022-07-21T09:13:37;9.20;;;5.70;;
36855;SDS011;22788;51.434;6.786;2022-07-21T09:16:03;7.30;;;5.18;;
36855;SDS011;22788;51.434;6.786;2022-07-21T09:18:31;7.35;;;4.80;;
36855;SDS011;22788;51.434;6.786;2022-07-21T09:20:57;6.53;;;5.28;;
36855;SDS011;22788;51.434;6.786;2022-07-21T09:23:24;6.65;;;5.63;;
36855;SDS011;22788;51.434;6.786;2022-07-21T09:25:51;6.75;;;5.28;;
36855;SDS011;22788;51.434;6.786;2022-07-21T09:28:19;5.43;;;4.93;;
36855;SDS011;22788;51.434;6.786;2022-07-21T09:30:47;5.72;;;5.18;;
36855;SDS011;22788;51.434;6.786;2022-07-21T09:33:21;9.95;;;5.13;;
36855;SDS011;22788;51.434;6.786;2022-07-21T09:35:58;6.20;;;5.22;;
36855;SDS011;22788;51.434;6.786;2022-07-21T09:38:26;7.10;;;5.38;;
36855;SDS011;22788;51.434;6.786;2022-07-21T09:40:53;5.53;;;4.72;;
36855;SDS011;22788;51.434;6.786;2022-07-21T09:43:32;5.78;;;4.80;;
36855;SDS011;22788;51.434;6.786;2022-07-21T09:46:00;6.43;;;5.15;;
36855;SDS011;22788;51.434;6.786;2022-07-21T09:48:29;7.78;;;5.45;;
36855;SDS011;22788;51.434;6.786;2022-07-21T09:50:58;6.22;;;5.07;;
36855;SDS011;22788;51.434;6.786;2022-07-21T09:53:48;7.65;;;5.45;;
36855;SDS011;22788;51.434;6.786;2022-07-21T09:56:16;13.50;;;6.85;;
36855;SDS011;22788;51.434;6.786;2022-07-21T09:58:43;6.90;;;5.82;;
36855;SDS011;22788;51.434;6.786;2022-07-21T10:01:10;6.93;;;5.32;;
36855;SDS011;22788;51.434;6.786;2022-07-21T10:03:37;7.55;;;6.28;;
36855;SDS011;22788;51.434;6.786;2022-07-21T10:06:05;8.55;;;5.60;;
36855;SDS011;22788;51.434;6.786;2022-07-21T10:08:33;7.15;;;5.32;;
36855;SDS011;22788;51.434;6.786;2022-07-21T10:11:02;7.80;;;5.88;;
36855;SDS011;22788;51.434;6.786;2022-07-21T10:13:28;5.88;;;5.22;;
36855;SDS011;22788;51.434;6.786;2022-07-21T10:15:54;11.27;;;6.32;;
36855;SDS011;22788;51.434;6.786;2022-07-21T10:18:22;9.85;;;5.90;;
36855;SDS011;22788;51.434;6.786;2022-07-21T10:20:51;8.73;;;5.65;;
36855;SDS011;22788;51.434;6.786;2022-07-21T10:23:27;14.07;;;6.53;;
36855;SDS011;22788;51.434;6.786;2022-07-21T10:25:59;6.70;;;5.35;;
36855;SDS011;22788;51.434;6.786;2022-07-21T10:28:26;9.38;;;6.55;;
36855;SDS011;22788;51.434;6.786;2022-07-21T10:30:53;6.35;;;5.55;;
36855;SDS011;22788;51.434;6.786;2022-07-21T10:33:21;5.72;;;5.13;;
36855;SDS011;22788;51.434;6.786;2022-07-21T10:36:07;7.10;;;6.40;;
36855;SDS011;22788;51.434;6.786;2022-07-21T10:38:36;7.43;;;5.63;;
36855;SDS011;22788;51.434;6.786;2022-07-21T10:41:04;7.10;;;5.47;;
36855;SDS011;22788;51.434;6.786;2022-07-21T10:43:43;7.63;;;6.10;;
36855;SDS011;22788;51.434;6.786;2022-07-21T10:49:00;9.43;;;5.80;;
36855;SDS011;22788;51.434;6.786;2022-07-21T10:51:26;8.00;;;5.32;;
36855;SDS011;22788;51.434;6.786;2022-07-21T11:02:46;8.43;;;5.68;;
36855;SDS011;22788;51.434;6.786;2022-07-21T11:05:13;6.53;;;5.82;;
36855;SDS011;22788;51.434;6.786;2022-07-21T11:10:36;8.27;;;6.57;;
36855;SDS011;22788;51.434;6.786;2022-07-21T11:13:04;6.82;;;5.85;;
36855;SDS011;22788;51.434;6.786;2022-07-21T11:15:43;6.97;;;5.72;;
36855;SDS011;22788;51.434;6.786;2022-07-21T11:18:18;9.10;;;5.78;;
36855;SDS011;22788;51.434;6.786;2022-07-21T11:21:00;7.72;;;5.88;;
36855;SDS011;22788;51.434;6.786;2022-07-21T11:23:34;5.95;;;5.32;;
36855;SDS011;22788;51.434;6.786;2022-07-21T11:26:02;6.57;;;5.90;;
36855;SDS011;22788;51.434;6.786;2022-07-21T11:28:28;7.15;;;5.95;;
36855;SDS011;22788;51.434;6.786;2022-07-21T11:31:05;6.07;;;5.40;;
36855;SDS011;22788;51.434;6.786;2022-07-21T11:33:42;5.93;;;5.40;;
36855;SDS011;22788;51.434;6.786;2022-07-21T11:36:09;6.65;;;5.40;;
36855;SDS011;22788;51.434;6.786;2022-07-21T11:38:55;7.30;;;5.80;;
36855;SDS011;22788;51.434;6.786;2022-07-21T11:41:24;6.97;;;5.30;;
36855;SDS011;22788;51.434;6.786;2022-07-21T11:43:50;7.90;;;6.13;;
36855;SDS011;22788;51.434;6.786;2022-07-21T11:46:16;7.57;;;5.47;;
36855;SDS011;22788;51.434;6.786;2022-07-21T11:48:42;6.20;;;5.60;;
36855;SDS011;22788;51.434;6.786;2022-07-21T11:51:08;6.05;;;5.45;;
36855;SDS011;22788;51.434;6.786;2022-07-21T11:53:34;7.15;;;6.03;;
36855;SDS011;22788;51.434;6.786;2022-07-21T11:56:00;7.15;;;5.35;;
36855;SDS011;22788;51.434;6.786;2022-07-21T11:58:28;7.13;;;5.32;;
36855;SDS011;22788;51.434;6.786;2022-07-21T12:01:04;6.13;;;5.53;;
36855;SDS011;22788;51.434;6.786;2022-07-21T12:03:30;7.47;;;5.53;;
36855;SDS011;22788;51.434;6.786;2022-07-21T12:05:57;7.22;;;5.55;;
36855;SDS011;22788;51.434;6.786;2022-07-21T12:08:23;6.95;;;4.95;;
36855;SDS011;22788;51.434;6.786;2022-07-21T12:10:50;5.82;;;5.32;;
36855;SDS011;22788;51.434;6.786;2022-07-21T12:13:16;5.30;;;4.80;;
36855;SDS011;22788;51.434;6.786;2022-07-21T12:15:43;5.95;;;5.28;;
36855;SDS011;22788;51.434;6.786;2022-07-21T12:18:17;7.35;;;4.90;;
36855;SDS011;22788;51.434;6.786;2022-07-21T12:20:44;5.75;;;5.20;;
36855;SDS011;22788;51.434;6.786;2022-07-21T12:23:18;5.47;;;4.97;;
36855;SDS011;22788;51.434;6.786;2022-07-21T12:25:45;5.20;;;4.68;;
36855;SDS011;22788;51.434;6.786;2022-07-21T12:28:12;5.53;;;5.00;;
36855;SDS011;22788;51.434;6.786;2022-07-21T12:30:40;6.15;;;4.97;;
36855;SDS011;22788;51.434;6.786;2022-07-21T12:33:09;7.00;;;5.10;;
36855;SDS011;22788;51.434;6.786;2022-07-21T12:35:37;6.10;;;4.75;;
36855;SDS011;22788;51.434;6.786;2022-07-21T12:38:06;6.03;;;4.68;;
36855;SDS011;22788;51.434;6.786;2022-07-21T12:40:35;5.03;;;4.53;;
36855;SDS011;22788;51.434;6.786;2022-07-21T12:43:06;4.97;;;4.55;;
36855;SDS011;22788;51.434;6.786;2022-07-21T12:45:44;6.55;;;5.13;;
36855;SDS011;22788;51.434;6.786;2022-07-21T12:48:20;5.72;;;4.75;;
36855;SDS011;22788;51.434;6.786;2022-07-21T12:51:07;5.60;;;5.00;;
36855;SDS011;22788;51.434;6.786;2022-07-21T12:53:37;5.32;;;4.38;;
36855;SDS011;22788;51.434;6.786;2022-07-21T12:56:06;5.82;;;4.25;;
36855;SDS011;22788;51.434;6.786;2022-07-21T12:58:32;6.25;;;4.50;;
36855;SDS011;22788;51.434;6.786;2022-07-21T13:00:59;4.75;;;4.35;;
36855;SDS011;22788;51.434;6.786;2022-07-21T13:03:28;4.68;;;3.72;;
36855;SDS011;22788;51.434;6.786;2022-07-21T13:05:54;5.88;;;4.38;;
36855;SDS011;22788;51.434;6.786;2022-07-21T13:08:21;5.13;;;4.35;;
36855;SDS011;22788;51.434;6.786;2022-07-21T13:10:47;5.13;;;3.83;;
36855;SDS011;22788;51.434;6.786;2022-07-21T13:13:13;4.25;;;3.83;;
36855;SDS011;22788;51.434;6.786;2022-07-21T13:15:39;4.65;;;3.95;;
36855;SDS011;22788;51.434;6.786;2022-07-21T13:18:05;4.72;;;3.80;;
36855;SDS011;22788;51.434;6.786;2022-07-21T13:20:33;4.95;;;4.45;;
36855;SDS011;22788;51.434;6.786;2022-07-21T13:22:59;5.57;;;4.03;;
36855;SDS011;22788;51.434;6.786;2022-07-21T13:25:25;4.78;;;3.70;;
36855;SDS011;22788;51.434;6.786;2022-07-21T13:27:51;5.03;;;4.05;;
36855;SDS011;22788;51.434;6.786;2022-07-21T13:30:17;5.20;;;4.38;;
36855;SDS011;22788;51.434;6.786;2022-07-21T13:32:43;4.78;;;3.85;;
36855;SDS011;22788;51.434;6.786;2022-07-21T13:35:10;4.60;;;3.72;;
36855;SDS011;22788;51.434;6.786;2022-07-21T13:37:37;4.57;;;3.60;;
36855;SDS011;22788;51.434;6.786;2022-07-21T13:40:04;4.45;;;3.92;;
36855;SDS011;22788;51.434;6.786;2022-07-21T13:42:31;4.45;;;3.83;;
36855;SDS011;22788;51.434;6.786;2022-07-21T13:44:57;4.00;;;3.60;;
36855;SDS011;22788;51.434;6.786;2022-07-21T13:47:23;4.63;;;4.15;;
36855;SDS011;22788;51.434;6.786;2022-07-21T13:49:49;5.25;;;4.03;;
36855;SDS011;22788;51.434;6.786;2022-07-21T13:52:16;6.20;;;4.15;;
36855;SDS011;22788;51.434;6.786;2022-07-21T13:54:43;4.13;;;3.70;;
36855;SDS011;22788;51.434;6.786;2022-07-21T13:57:09;5.53;;;4.20;;
36855;SDS011;22788;51.434;6.786;2022-07-21T13:59:35;4.60;;;3.88;;
36855;SDS011;22788;51.434;6.786;2022-07-21T14:02:01;5.38;;;3.85;;
36855;SDS011;22788;51.434;6.786;2022-07-21T14:04:28;5.25;;;3.80;;
36855;SDS011;22788;51.434;6.786;2022-07-21T14:06:54;4.72;;;3.42;;
36855;SDS011;22788;51.434;6.786;2022-07-21T14:09:20;4.50;;;4.07;;
36855;SDS011;22788;51.434;6.786;2022-07-21T14:11:47;5.65;;;3.40;;
36855;SDS011;22788;51.434;6.786;2022-07-21T14:14:14;4.53;;;3.97;;
36855;SDS011;22788;51.434;6.786;2022-07-21T14:16:40;7.30;;;3.83;;
36855;SDS011;22788;51.434;6.786;2022-07-21T14:19:06;3.55;;;3.15;;
36855;SDS011;22788;51.434;6.786;2022-07-21T14:21:32;3.72;;;3.42;;
36855;SDS011;22788;51.434;6.786;2022-07-21T14:23:58;3.83;;;3.53;;
36855;SDS011;22788;51.434;6.786;2022-07-21T14:26:24;5.07;;;3.67;;
36855;SDS011;22788;51.434;6.786;2022-07-21T14:28:52;5.07;;;3.90;;
36855;SDS011;22788;51.434;6.786;2022-07-21T14:31:18;4.63;;;3.58;;
36855;SDS011;22788;51.434;6.786;2022-07-21T14:33:44;4.32;;;3.78;;
36855;SDS011;22788;51.434;6.786;2022-07-21T14:36:10;4.18;;;3.72;;
36855;SDS011;22788;51.434;6.786;2022-07-21T14:38:36;5.32;;;4.25;;
36855;SDS011;22788;51.434;6.786;2022-07-21T14:41:02;3.65;;;3.35;;
36855;SDS011;22788;51.434;6.786;2022-07-21T14:43:28;4.53;;;3.67;;
36855;SDS011;22788;51.434;6.786;2022-07-21T14:45:55;4.47;;;3.60;;
36855;SDS011;22788;51.434;6.786;2022-07-21T14:48:22;3.95;;;3.40;;
36855;SDS011;22788;51.434;6.786;2022-07-21T14:50:48;4.03;;;3.63;;
36855;SDS011;22788;51.434;6.786;2022-07-21T14:53:14;3.33;;;3.03;;
36855;SDS011;22788;51.434;6.786;2022-07-21T14:55:40;4.03;;;3.63;;
36855;SDS011;22788;51.434;6.786;2022-07-21T14:58:14;3.85;;;3.55;;
36855;SDS011;22788;51.434;6.786;2022-07-21T15:00:59;2.63;;;2.40;;
36855;SDS011;22788;51.434;6.786;2022-07-21T15:03:25;3.78;;;3.13;;